sensor_id;sensor_type;location;lat;lon;timestamp;P1;durP1;ratioP1;P2;durP2;ratioP2
67191;SDS011;54120;53.504;49.426;2023-12-04T00:01:55;4.20;;;3.45;;
67191;SDS011;54120;53.504;49.426;2023-12-04T00:04:21;6.43;;;4.00;;
67191;SDS011;54120;53.504;49.426;2023-12-04T00:06:47;6.13;;;4.10;;
67191;SDS011;54120;53.504;49.426;2023-12-04T00:09:13;5.15;;;4.10;;
67191;SDS011;54120;53.504;49.426;2023-12-04T00:11:39;4.45;;;3.97;;
67191;SDS011;54120;53.504;49.426;2023-12-04T00:14:05;6.35;;;4.40;;
67191;SDS011;54120;53.504;49.426;2023-12-04T00:16:33;5.60;;;4.20;;
67191;SDS011;54120;53.504;49.426;2023-12-04T00:19:01;5.45;;;4.13;;
67191;SDS011;54120;53.504;49.426;2023-12-04T00:21:27;5.85;;;4.25;;
67191;SDS011;54120;53.504;49.426;2023-12-04T00:23:52;4.95;;;4.15;;
67191;SDS011;54120;53.504;49.426;2023-12-04T00:26:18;5.80;;;4.22;;
67191;SDS011;54120;53.504;49.426;2023-12-04T00:28:44;5.43;;;4.07;;
67191;SDS011;54120;53.504;49.426;2023-12-04T00:31:10;5.90;;;4.78;;
67191;SDS011;54120;53.504;49.426;2023-12-04T00:33:36;5.50;;;4.30;;
67191;SDS011;54120;53.504;49.426;2023-12-04T00:36:02;6.93;;;4.10;;
67191;SDS011;54120;53.504;49.426;2023-12-04T00:38:29;5.50;;;4.47;;
67191;SDS011;54120;53.504;49.426;2023-12-04T00:40:55;6.68;;;4.88;;
67191;SDS011;54120;53.504;49.426;2023-12-04T00:43:21;8.80;;;4.53;;
67191;SDS011;54120;53.504;49.426;2023-12-04T00:45:47;6.10;;;4.60;;
67191;SDS011;54120;53.504;49.426;2023-12-04T00:48:13;7.47;;;5.25;;
67191;SDS011;54120;53.504;49.426;2023-12-04T00:50:39;6.22;;;4.55;;
67191;SDS011;54120;53.504;49.426;2023-12-04T00:53:05;9.00;;;4.97;;
67191;SDS011;54120;53.504;49.426;2023-12-04T00:55:30;9.50;;;5.18;;
67191;SDS011;54120;53.504;49.426;2023-12-04T00:57:57;9.88;;;5.65;;
67191;SDS011;54120;53.504;49.426;2023-12-04T01:00:23;8.65;;;5.85;;
67191;SDS011;54120;53.504;49.426;2023-12-04T01:02:50;8.77;;;5.65;;
67191;SDS011;54120;53.504;49.426;2023-12-04T01:05:17;13.70;;;6.72;;
67191;SDS011;54120;53.504;49.426;2023-12-04T01:07:43;9.55;;;5.50;;
67191;SDS011;54120;53.504;49.426;2023-12-04T01:10:09;9.93;;;5.88;;
67191;SDS011;54120;53.504;49.426;2023-12-04T01:12:35;10.15;;;6.05;;
67191;SDS011;54120;53.504;49.426;2023-12-04T01:15:01;9.00;;;5.50;;
67191;SDS011;54120;53.504;49.426;2023-12-04T01:17:28;9.18;;;6.03;;
67191;SDS011;54120;53.504;49.426;2023-12-04T01:19:54;10.43;;;6.18;;
67191;SDS011;54120;53.504;49.426;2023-12-04T01:22:20;8.55;;;5.88;;
67191;SDS011;54120;53.504;49.426;2023-12-04T01:24:46;12.65;;;6.25;;
67191;SDS011;54120;53.504;49.426;2023-12-04T01:27:12;11.30;;;6.75;;
67191;SDS011;54120;53.504;49.426;2023-12-04T01:29:38;10.48;;;6.07;;
67191;SDS011;54120;53.504;49.426;2023-12-04T01:32:04;9.75;;;6.25;;
67191;SDS011;54120;53.504;49.426;2023-12-04T01:34:31;8.65;;;6.15;;
67191;SDS011;54120;53.504;49.426;2023-12-04T01:36:57;9.30;;;5.97;;
67191;SDS011;54120;53.504;49.426;2023-12-04T01:39:23;9.85;;;5.63;;
67191;SDS011;54120;53.504;49.426;2023-12-04T01:41:49;9.02;;;6.05;;
67191;SDS011;54120;53.504;49.426;2023-12-04T01:44:15;8.88;;;5.68;;
67191;SDS011;54120;53.504;49.426;2023-12-04T01:46:41;9.30;;;6.03;;
67191;SDS011;54120;53.504;49.426;2023-12-04T01:49:08;9.05;;;5.93;;
67191;SDS011;54120;53.504;49.426;2023-12-04T01:51:34;7.93;;;6.05;;
67191;SDS011;54120;53.504;49.426;2023-12-04T01:54:01;9.60;;;5.95;;
67191;SDS011;54120;53.504;49.426;2023-12-04T01:56:30;10.25;;;6.20;;
67191;SDS011;54120;53.504;49.426;2023-12-04T01:58:57;13.52;;;7.05;;
67191;SDS011;54120;53.504;49.426;2023-12-04T02:01:24;11.27;;;7.03;;
67191;SDS011;54120;53.504;49.426;2023-12-04T02:03:53;10.65;;;6.13;;
67191;SDS011;54120;53.504;49.426;2023-12-04T02:06:20;11.43;;;6.97;;
67191;SDS011;54120;53.504;49.426;2023-12-04T02:08:47;13.80;;;7.13;;
67191;SDS011;54120;53.504;49.426;2023-12-04T02:11:14;11.43;;;6.65;;
67191;SDS011;54120;53.504;49.426;2023-12-04T02:13:40;17.58;;;7.47;;
67191;SDS011;54120;53.504;49.426;2023-12-04T02:16:09;14.50;;;7.55;;
67191;SDS011;54120;53.504;49.426;2023-12-04T02:18:38;13.23;;;7.88;;
67191;SDS011;54120;53.504;49.426;2023-12-04T02:21:05;13.98;;;7.90;;
67191;SDS011;54120;53.504;49.426;2023-12-04T02:23:31;17.38;;;8.55;;
67191;SDS011;54120;53.504;49.426;2023-12-04T02:26:03;19.80;;;9.40;;
67191;SDS011;54120;53.504;49.426;2023-12-04T02:28:36;21.90;;;8.63;;
67191;SDS011;54120;53.504;49.426;2023-12-04T02:31:04;18.17;;;9.40;;
67191;SDS011;54120;53.504;49.426;2023-12-04T02:33:32;17.52;;;8.57;;
67191;SDS011;54120;53.504;49.426;2023-12-04T02:36:00;20.25;;;9.77;;
67191;SDS011;54120;53.504;49.426;2023-12-04T02:38:28;17.15;;;8.57;;
67191;SDS011;54120;53.504;49.426;2023-12-04T02:40:55;25.48;;;10.02;;
67191;SDS011;54120;53.504;49.426;2023-12-04T02:43:22;28.90;;;10.65;;
67191;SDS011;54120;53.504;49.426;2023-12-04T02:45:48;26.52;;;11.05;;
67191;SDS011;54120;53.504;49.426;2023-12-04T02:48:14;23.90;;;10.80;;
67191;SDS011;54120;53.504;49.426;2023-12-04T02:50:41;33.97;;;12.55;;
67191;SDS011;54120;53.504;49.426;2023-12-04T02:53:07;29.48;;;10.82;;
67191;SDS011;54120;53.504;49.426;2023-12-04T02:55:33;29.10;;;11.77;;
67191;SDS011;54120;53.504;49.426;2023-12-04T02:58:00;26.35;;;11.40;;
67191;SDS011;54120;53.504;49.426;2023-12-04T03:00:27;31.50;;;11.57;;
67191;SDS011;54120;53.504;49.426;2023-12-04T03:02:53;23.23;;;10.80;;
67191;SDS011;54120;53.504;49.426;2023-12-04T03:05:20;25.73;;;11.23;;
67191;SDS011;54120;53.504;49.426;2023-12-04T03:07:46;32.42;;;11.35;;
67191;SDS011;54120;53.504;49.426;2023-12-04T03:10:13;30.50;;;11.68;;
67191;SDS011;54120;53.504;49.426;2023-12-04T03:12:40;34.97;;;10.93;;
67191;SDS011;54120;53.504;49.426;2023-12-04T03:15:07;34.88;;;11.98;;
67191;SDS011;54120;53.504;49.426;2023-12-04T03:17:33;30.73;;;11.90;;
67191;SDS011;54120;53.504;49.426;2023-12-04T03:19:59;29.00;;;12.25;;
67191;SDS011;54120;53.504;49.426;2023-12-04T03:22:26;31.25;;;11.27;;
67191;SDS011;54120;53.504;49.426;2023-12-04T03:24:52;27.05;;;11.80;;
67191;SDS011;54120;53.504;49.426;2023-12-04T03:27:18;29.23;;;11.10;;
67191;SDS011;54120;53.504;49.426;2023-12-04T03:29:44;24.35;;;11.35;;
67191;SDS011;54120;53.504;49.426;2023-12-04T03:32:11;23.77;;;11.38;;
67191;SDS011;54120;53.504;49.426;2023-12-04T03:34:37;20.83;;;11.27;;
67191;SDS011;54120;53.504;49.426;2023-12-04T03:37:04;19.85;;;11.52;;
67191;SDS011;54120;53.504;49.426;2023-12-04T03:39:30;19.27;;;10.80;;
67191;SDS011;54120;53.504;49.426;2023-12-04T03:41:57;17.15;;;9.93;;
67191;SDS011;54120;53.504;49.426;2023-12-04T03:44:23;20.73;;;10.30;;
67191;SDS011;54120;53.504;49.426;2023-12-04T03:46:49;15.95;;;9.18;;
67191;SDS011;54120;53.504;49.426;2023-12-04T03:49:16;21.88;;;8.75;;
67191;SDS011;54120;53.504;49.426;2023-12-04T03:51:43;13.07;;;8.63;;
67191;SDS011;54120;53.504;49.426;2023-12-04T03:54:09;14.38;;;9.02;;
67191;SDS011;54120;53.504;49.426;2023-12-04T03:56:35;17.45;;;10.15;;
67191;SDS011;54120;53.504;49.426;2023-12-04T03:59:02;15.13;;;8.15;;
67191;SDS011;54120;53.504;49.426;2023-12-04T04:01:28;12.90;;;9.07;;
67191;SDS011;54120;53.504;49.426;2023-12-04T04:03:54;13.73;;;8.95;;
67191;SDS011;54120;53.504;49.426;2023-12-04T04:06:20;14.13;;;8.65;;
67191;SDS011;54120;53.504;49.426;2023-12-04T04:08:46;12.27;;;8.18;;
67191;SDS011;54120;53.504;49.426;2023-12-04T04:11:12;13.35;;;8.30;;
67191;SDS011;54120;53.504;49.426;2023-12-04T04:13:38;13.55;;;8.10;;
67191;SDS011;54120;53.504;49.426;2023-12-04T04:16:04;10.82;;;7.50;;
67191;SDS011;54120;53.504;49.426;2023-12-04T04:18:31;10.52;;;7.60;;
67191;SDS011;54120;53.504;49.426;2023-12-04T04:20:57;11.23;;;7.47;;
67191;SDS011;54120;53.504;49.426;2023-12-04T04:23:23;11.15;;;7.60;;
67191;SDS011;54120;53.504;49.426;2023-12-04T04:25:49;12.45;;;7.40;;
67191;SDS011;54120;53.504;49.426;2023-12-04T04:28:15;10.95;;;7.60;;
67191;SDS011;54120;53.504;49.426;2023-12-04T04:30:41;11.82;;;7.63;;
67191;SDS011;54120;53.504;49.426;2023-12-04T04:33:07;11.15;;;7.72;;
67191;SDS011;54120;53.504;49.426;2023-12-04T04:35:33;10.88;;;7.68;;
67191;SDS011;54120;53.504;49.426;2023-12-04T04:37:59;11.50;;;7.35;;
67191;SDS011;54120;53.504;49.426;2023-12-04T04:40:25;10.35;;;7.22;;
67191;SDS011;54120;53.504;49.426;2023-12-04T04:42:51;11.45;;;8.45;;
67191;SDS011;54120;53.504;49.426;2023-12-04T04:45:16;9.32;;;7.18;;
67191;SDS011;54120;53.504;49.426;2023-12-04T04:47:43;10.63;;;7.85;;
67191;SDS011;54120;53.504;49.426;2023-12-04T04:50:09;7.82;;;6.07;;
67191;SDS011;54120;53.504;49.426;2023-12-04T04:52:35;8.95;;;6.95;;
67191;SDS011;54120;53.504;49.426;2023-12-04T04:55:01;9.50;;;6.80;;
67191;SDS011;54120;53.504;49.426;2023-12-04T04:57:27;9.40;;;7.07;;
67191;SDS011;54120;53.504;49.426;2023-12-04T04:59:54;8.75;;;6.65;;
67191;SDS011;54120;53.504;49.426;2023-12-04T05:02:19;9.27;;;6.53;;
67191;SDS011;54120;53.504;49.426;2023-12-04T05:04:45;8.77;;;6.72;;
67191;SDS011;54120;53.504;49.426;2023-12-04T05:07:11;7.55;;;6.10;;
67191;SDS011;54120;53.504;49.426;2023-12-04T05:09:38;7.43;;;5.90;;
67191;SDS011;54120;53.504;49.426;2023-12-04T05:12:04;8.18;;;6.03;;
67191;SDS011;54120;53.504;49.426;2023-12-04T05:14:30;9.10;;;6.05;;
67191;SDS011;54120;53.504;49.426;2023-12-04T05:16:56;7.15;;;5.95;;
67191;SDS011;54120;53.504;49.426;2023-12-04T05:19:22;6.50;;;5.35;;
67191;SDS011;54120;53.504;49.426;2023-12-04T05:21:48;6.30;;;5.35;;
67191;SDS011;54120;53.504;49.426;2023-12-04T05:24:14;6.40;;;5.70;;
67191;SDS011;54120;53.504;49.426;2023-12-04T05:26:40;7.47;;;5.20;;
67191;SDS011;54120;53.504;49.426;2023-12-04T05:29:06;6.57;;;5.05;;
67191;SDS011;54120;53.504;49.426;2023-12-04T05:31:32;5.63;;;4.82;;
67191;SDS011;54120;53.504;49.426;2023-12-04T05:33:58;5.32;;;4.45;;
67191;SDS011;54120;53.504;49.426;2023-12-04T05:36:24;5.90;;;5.00;;
67191;SDS011;54120;53.504;49.426;2023-12-04T05:38:50;8.65;;;5.20;;
67191;SDS011;54120;53.504;49.426;2023-12-04T05:41:19;6.47;;;5.43;;
67191;SDS011;54120;53.504;49.426;2023-12-04T05:43:45;6.05;;;4.70;;
67191;SDS011;54120;53.504;49.426;2023-12-04T05:46:11;6.15;;;4.90;;
67191;SDS011;54120;53.504;49.426;2023-12-04T05:48:37;5.30;;;4.80;;
67191;SDS011;54120;53.504;49.426;2023-12-04T05:51:03;6.90;;;4.72;;
67191;SDS011;54120;53.504;49.426;2023-12-04T05:53:29;5.60;;;4.75;;
67191;SDS011;54120;53.504;49.426;2023-12-04T05:55:55;7.80;;;5.63;;
67191;SDS011;54120;53.504;49.426;2023-12-04T05:58:22;4.78;;;4.22;;
67191;SDS011;54120;53.504;49.426;2023-12-04T06:00:48;5.60;;;5.07;;
67191;SDS011;54120;53.504;49.426;2023-12-04T06:03:14;6.47;;;4.65;;
67191;SDS011;54120;53.504;49.426;2023-12-04T06:05:40;5.07;;;4.57;;
67191;SDS011;54120;53.504;49.426;2023-12-04T06:08:06;5.72;;;5.07;;
67191;SDS011;54120;53.504;49.426;2023-12-04T06:10:32;5.40;;;4.85;;
67191;SDS011;54120;53.504;49.426;2023-12-04T06:13:00;6.20;;;5.25;;
67191;SDS011;54120;53.504;49.426;2023-12-04T06:15:26;5.47;;;4.85;;
67191;SDS011;54120;53.504;49.426;2023-12-04T06:17:52;5.93;;;5.30;;
67191;SDS011;54120;53.504;49.426;2023-12-04T06:20:18;5.55;;;5.05;;
67191;SDS011;54120;53.504;49.426;2023-12-04T06:22:44;8.25;;;5.53;;
67191;SDS011;54120;53.504;49.426;2023-12-04T06:25:11;5.82;;;5.22;;
67191;SDS011;54120;53.504;49.426;2023-12-04T06:27:37;5.90;;;5.30;;
67191;SDS011;54120;53.504;49.426;2023-12-04T06:30:05;6.00;;;4.75;;
67191;SDS011;54120;53.504;49.426;2023-12-04T06:32:32;5.60;;;4.68;;
67191;SDS011;54120;53.504;49.426;2023-12-04T06:34:58;4.90;;;4.40;;
67191;SDS011;54120;53.504;49.426;2023-12-04T06:37:25;4.95;;;4.20;;
67191;SDS011;54120;53.504;49.426;2023-12-04T06:39:52;5.05;;;4.55;;
67191;SDS011;54120;53.504;49.426;2023-12-04T06:42:19;4.90;;;4.40;;
67191;SDS011;54120;53.504;49.426;2023-12-04T06:44:45;4.95;;;4.50;;
67191;SDS011;54120;53.504;49.426;2023-12-04T06:47:12;5.03;;;4.53;;
67191;SDS011;54120;53.504;49.426;2023-12-04T06:49:39;4.95;;;4.45;;
67191;SDS011;54120;53.504;49.426;2023-12-04T06:52:05;5.53;;;5.03;;
67191;SDS011;54120;53.504;49.426;2023-12-04T06:54:31;5.97;;;5.22;;
67191;SDS011;54120;53.504;49.426;2023-12-04T06:56:58;5.38;;;4.88;;
67191;SDS011;54120;53.504;49.426;2023-12-04T06:59:24;4.70;;;4.30;;
67191;SDS011;54120;53.504;49.426;2023-12-04T07:01:50;4.28;;;3.88;;
67191;SDS011;54120;53.504;49.426;2023-12-04T07:04:16;4.25;;;3.85;;
67191;SDS011;54120;53.504;49.426;2023-12-04T07:06:46;4.45;;;4.00;;
67191;SDS011;54120;53.504;49.426;2023-12-04T07:09:19;4.80;;;4.35;;
67191;SDS011;54120;53.504;49.426;2023-12-04T07:13:57;4.30;;;3.90;;
67191;SDS011;54120;53.504;49.426;2023-12-04T07:16:23;5.10;;;3.90;;
67191;SDS011;54120;53.504;49.426;2023-12-04T07:18:49;4.15;;;3.75;;
67191;SDS011;54120;53.504;49.426;2023-12-04T07:21:15;4.30;;;3.90;;
67191;SDS011;54120;53.504;49.426;2023-12-04T07:23:41;4.15;;;3.72;;
67191;SDS011;54120;53.504;49.426;2023-12-04T07:26:07;3.70;;;3.40;;
67191;SDS011;54120;53.504;49.426;2023-12-04T07:28:33;4.20;;;3.80;;
67191;SDS011;54120;53.504;49.426;2023-12-04T07:31:00;4.65;;;4.00;;
67191;SDS011;54120;53.504;49.426;2023-12-04T07:33:29;4.25;;;3.85;;
67191;SDS011;54120;53.504;49.426;2023-12-04T07:35:55;6.90;;;4.38;;
67191;SDS011;54120;53.504;49.426;2023-12-04T07:38:21;9.00;;;6.18;;
67191;SDS011;54120;53.504;49.426;2023-12-04T07:40:47;9.30;;;7.47;;
67191;SDS011;54120;53.504;49.426;2023-12-04T07:43:13;6.93;;;5.75;;
67191;SDS011;54120;53.504;49.426;2023-12-04T07:45:40;5.68;;;5.00;;
67191;SDS011;54120;53.504;49.426;2023-12-04T07:48:07;5.00;;;4.50;;
67191;SDS011;54120;53.504;49.426;2023-12-04T07:50:33;5.13;;;4.40;;
67191;SDS011;54120;53.504;49.426;2023-12-04T07:52:59;5.20;;;4.70;;
67191;SDS011;54120;53.504;49.426;2023-12-04T07:55:25;7.68;;;5.40;;
67191;SDS011;54120;53.504;49.426;2023-12-04T07:57:52;6.72;;;5.60;;
67191;SDS011;54120;53.504;49.426;2023-12-04T08:00:19;6.70;;;5.93;;
67191;SDS011;54120;53.504;49.426;2023-12-04T08:02:45;5.90;;;5.00;;
67191;SDS011;54120;53.504;49.426;2023-12-04T08:05:12;6.50;;;5.00;;
67191;SDS011;54120;53.504;49.426;2023-12-04T08:07:38;4.78;;;4.22;;
67191;SDS011;54120;53.504;49.426;2023-12-04T08:10:09;4.45;;;4.05;;
67191;SDS011;54120;53.504;49.426;2023-12-04T08:12:35;4.60;;;4.10;;
67191;SDS011;54120;53.504;49.426;2023-12-04T08:15:02;4.65;;;4.05;;
67191;SDS011;54120;53.504;49.426;2023-12-04T08:17:29;5.25;;;3.65;;
67191;SDS011;54120;53.504;49.426;2023-12-04T08:19:55;4.93;;;3.88;;
67191;SDS011;54120;53.504;49.426;2023-12-04T08:22:21;8.85;;;3.88;;
67191;SDS011;54120;53.504;49.426;2023-12-04T08:24:47;4.18;;;3.78;;
67191;SDS011;54120;53.504;49.426;2023-12-04T08:27:13;4.43;;;3.45;;
67191;SDS011;54120;53.504;49.426;2023-12-04T08:29:39;3.90;;;3.60;;
67191;SDS011;54120;53.504;49.426;2023-12-04T08:32:06;4.10;;;3.70;;
67191;SDS011;54120;53.504;49.426;2023-12-04T08:34:32;4.30;;;3.90;;
67191;SDS011;54120;53.504;49.426;2023-12-04T08:36:58;3.80;;;3.50;;
67191;SDS011;54120;53.504;49.426;2023-12-04T08:39:24;4.15;;;3.75;;
67191;SDS011;54120;53.504;49.426;2023-12-04T08:41:50;3.97;;;3.58;;
67191;SDS011;54120;53.504;49.426;2023-12-04T08:44:16;3.92;;;3.63;;
67191;SDS011;54120;53.504;49.426;2023-12-04T08:46:43;3.80;;;3.50;;
67191;SDS011;54120;53.504;49.426;2023-12-04T08:49:09;4.00;;;3.33;;
67191;SDS011;54120;53.504;49.426;2023-12-04T08:51:35;3.95;;;3.55;;
67191;SDS011;54120;53.504;49.426;2023-12-04T08:54:01;9.10;;;4.50;;
67191;SDS011;54120;53.504;49.426;2023-12-04T08:56:28;4.32;;;3.90;;
67191;SDS011;54120;53.504;49.426;2023-12-04T08:58:55;4.63;;;3.65;;
67191;SDS011;54120;53.504;49.426;2023-12-04T09:01:23;4.15;;;3.75;;
67191;SDS011;54120;53.504;49.426;2023-12-04T09:03:49;4.30;;;3.90;;
67191;SDS011;54120;53.504;49.426;2023-12-04T09:06:17;4.28;;;3.88;;
67191;SDS011;54120;53.504;49.426;2023-12-04T09:08:43;6.88;;;4.22;;
67191;SDS011;54120;53.504;49.426;2023-12-04T09:11:10;6.78;;;4.30;;
67191;SDS011;54120;53.504;49.426;2023-12-04T09:13:36;5.60;;;4.70;;
67191;SDS011;54120;53.504;49.426;2023-12-04T09:16:04;4.43;;;4.03;;
67191;SDS011;54120;53.504;49.426;2023-12-04T09:18:30;5.00;;;4.50;;
67191;SDS011;54120;53.504;49.426;2023-12-04T09:20:57;6.07;;;4.60;;
67191;SDS011;54120;53.504;49.426;2023-12-04T09:23:23;5.80;;;5.30;;
67191;SDS011;54120;53.504;49.426;2023-12-04T09:25:49;5.57;;;5.05;;
67191;SDS011;54120;53.504;49.426;2023-12-04T09:28:16;11.13;;;5.40;;
67191;SDS011;54120;53.504;49.426;2023-12-04T09:30:42;5.70;;;4.60;;
67191;SDS011;54120;53.504;49.426;2023-12-04T09:33:09;4.45;;;4.03;;
67191;SDS011;54120;53.504;49.426;2023-12-04T09:35:35;3.97;;;3.58;;
67191;SDS011;54120;53.504;49.426;2023-12-04T09:38:02;3.35;;;2.90;;
67191;SDS011;54120;53.504;49.426;2023-12-04T09:40:28;3.25;;;2.90;;
67191;SDS011;54120;53.504;49.426;2023-12-04T09:42:54;5.53;;;2.80;;
67191;SDS011;54120;53.504;49.426;2023-12-04T09:45:21;3.13;;;2.83;;
67191;SDS011;54120;53.504;49.426;2023-12-04T09:47:50;3.10;;;2.85;;
67191;SDS011;54120;53.504;49.426;2023-12-04T09:50:16;3.03;;;2.72;;
67191;SDS011;54120;53.504;49.426;2023-12-04T09:52:49;3.05;;;2.78;;
67191;SDS011;54120;53.504;49.426;2023-12-04T09:55:16;3.10;;;2.80;;
67191;SDS011;54120;53.504;49.426;2023-12-04T09:57:43;2.80;;;2.60;;
67191;SDS011;54120;53.504;49.426;2023-12-04T10:00:11;3.40;;;2.80;;
67191;SDS011;54120;53.504;49.426;2023-12-04T10:02:40;3.10;;;2.80;;
67191;SDS011;54120;53.504;49.426;2023-12-04T10:05:08;2.97;;;2.60;;
67191;SDS011;54120;53.504;49.426;2023-12-04T10:07:35;2.90;;;2.70;;
67191;SDS011;54120;53.504;49.426;2023-12-04T10:10:04;3.38;;;2.90;;
67191;SDS011;54120;53.504;49.426;2023-12-04T10:12:32;2.80;;;2.60;;
67191;SDS011;54120;53.504;49.426;2023-12-04T10:15:09;3.90;;;2.92;;
67191;SDS011;54120;53.504;49.426;2023-12-04T10:17:37;3.03;;;2.77;;
67191;SDS011;54120;53.504;49.426;2023-12-04T10:20:09;3.00;;;2.65;;
67191;SDS011;54120;53.504;49.426;2023-12-04T10:22:51;2.80;;;2.60;;
67191;SDS011;54120;53.504;49.426;2023-12-04T10:25:28;4.68;;;2.67;;
67191;SDS011;54120;53.504;49.426;2023-12-04T10:28:15;3.65;;;2.53;;
67191;SDS011;54120;53.504;49.426;2023-12-04T10:30:42;3.75;;;2.60;;
67191;SDS011;54120;53.504;49.426;2023-12-04T10:33:09;3.45;;;2.92;;
67191;SDS011;54120;53.504;49.426;2023-12-04T10:35:36;3.10;;;2.85;;
67191;SDS011;54120;53.504;49.426;2023-12-04T10:38:03;5.50;;;3.15;;
67191;SDS011;54120;53.504;49.426;2023-12-04T10:42:45;3.08;;;2.78;;
67191;SDS011;54120;53.504;49.426;2023-12-04T10:45:12;2.90;;;2.70;;
67191;SDS011;54120;53.504;49.426;2023-12-04T10:47:38;3.25;;;2.95;;
67191;SDS011;54120;53.504;49.426;2023-12-04T10:50:05;3.67;;;3.00;;
67191;SDS011;54120;53.504;49.426;2023-12-04T10:52:33;3.30;;;3.00;;
67191;SDS011;54120;53.504;49.426;2023-12-04T10:55:00;5.30;;;3.38;;
67191;SDS011;54120;53.504;49.426;2023-12-04T10:57:27;3.45;;;3.15;;
67191;SDS011;54120;53.504;49.426;2023-12-04T11:00:02;4.47;;;4.07;;
67191;SDS011;54120;53.504;49.426;2023-12-04T11:02:32;4.07;;;3.67;;
67191;SDS011;54120;53.504;49.426;2023-12-04T11:07:11;13.63;;;3.83;;
67191;SDS011;54120;53.504;49.426;2023-12-04T11:09:39;8.23;;;4.55;;
67191;SDS011;54120;53.504;49.426;2023-12-04T11:12:08;5.38;;;4.45;;
67191;SDS011;54120;53.504;49.426;2023-12-04T11:14:44;3.92;;;3.50;;
67191;SDS011;54120;53.504;49.426;2023-12-04T11:17:16;4.30;;;3.90;;
67191;SDS011;54120;53.504;49.426;2023-12-04T11:19:55;6.78;;;3.83;;
67191;SDS011;54120;53.504;49.426;2023-12-04T11:22:30;4.50;;;4.10;;
67191;SDS011;54120;53.504;49.426;2023-12-04T11:24:57;4.68;;;3.58;;
67191;SDS011;54120;53.504;49.426;2023-12-04T11:27:23;3.75;;;3.40;;
67191;SDS011;54120;53.504;49.426;2023-12-04T11:29:50;2.70;;;2.50;;
67191;SDS011;54120;53.504;49.426;2023-12-04T11:32:17;2.30;;;2.15;;
67191;SDS011;54120;53.504;49.426;2023-12-04T11:34:51;2.33;;;2.20;;
67191;SDS011;54120;53.504;49.426;2023-12-04T11:37:20;2.05;;;1.70;;
67191;SDS011;54120;53.504;49.426;2023-12-04T11:39:49;1.92;;;1.80;;
67191;SDS011;54120;53.504;49.426;2023-12-04T11:42:22;1.80;;;1.70;;
67191;SDS011;54120;53.504;49.426;2023-12-04T11:44:50;1.88;;;1.77;;
67191;SDS011;54120;53.504;49.426;2023-12-04T11:47:23;2.42;;;2.22;;
67191;SDS011;54120;53.504;49.426;2023-12-04T11:49:49;2.10;;;2.00;;
67191;SDS011;54120;53.504;49.426;2023-12-04T11:52:16;2.10;;;1.90;;
67191;SDS011;54120;53.504;49.426;2023-12-04T11:54:55;2.08;;;1.95;;
67191;SDS011;54120;53.504;49.426;2023-12-04T11:57:24;2.63;;;2.42;;
67191;SDS011;54120;53.504;49.426;2023-12-04T11:59:52;3.50;;;2.85;;
67191;SDS011;54120;53.504;49.426;2023-12-04T12:02:30;2.00;;;1.90;;
67191;SDS011;54120;53.504;49.426;2023-12-04T12:04:56;2.40;;;2.20;;
67191;SDS011;54120;53.504;49.426;2023-12-04T12:07:24;1.92;;;1.83;;
67191;SDS011;54120;53.504;49.426;2023-12-04T12:09:50;2.05;;;1.95;;
67191;SDS011;54120;53.504;49.426;2023-12-04T12:12:17;2.60;;;2.40;;
67191;SDS011;54120;53.504;49.426;2023-12-04T12:14:43;2.83;;;2.63;;
67191;SDS011;54120;53.504;49.426;2023-12-04T12:17:09;2.80;;;2.60;;
67191;SDS011;54120;53.504;49.426;2023-12-04T12:19:35;2.95;;;2.75;;
67191;SDS011;54120;53.504;49.426;2023-12-04T12:22:03;3.85;;;2.83;;
67191;SDS011;54120;53.504;49.426;2023-12-04T12:24:30;3.20;;;2.90;;
67191;SDS011;54120;53.504;49.426;2023-12-04T12:26:56;3.40;;;3.10;;
67191;SDS011;54120;53.504;49.426;2023-12-04T12:29:22;3.92;;;3.53;;
67191;SDS011;54120;53.504;49.426;2023-12-04T12:31:49;4.97;;;3.65;;
67191;SDS011;54120;53.504;49.426;2023-12-04T12:34:17;4.82;;;4.00;;
67191;SDS011;54120;53.504;49.426;2023-12-04T12:36:43;4.38;;;3.97;;
67191;SDS011;54120;53.504;49.426;2023-12-04T12:39:10;4.43;;;3.92;;
67191;SDS011;54120;53.504;49.426;2023-12-04T12:41:37;4.53;;;4.13;;
67191;SDS011;54120;53.504;49.426;2023-12-04T12:44:04;4.38;;;3.97;;
67191;SDS011;54120;53.504;49.426;2023-12-04T12:46:31;5.25;;;4.10;;
67191;SDS011;54120;53.504;49.426;2023-12-04T12:48:59;3.85;;;3.50;;
67191;SDS011;54120;53.504;49.426;2023-12-04T12:51:25;3.88;;;3.47;;
67191;SDS011;54120;53.504;49.426;2023-12-04T12:53:52;4.18;;;3.72;;
67191;SDS011;54120;53.504;49.426;2023-12-04T12:56:19;4.68;;;3.97;;
67191;SDS011;54120;53.504;49.426;2023-12-04T12:58:47;6.13;;;4.93;;
67191;SDS011;54120;53.504;49.426;2023-12-04T13:01:14;4.50;;;4.10;;
67191;SDS011;54120;53.504;49.426;2023-12-04T13:03:44;4.97;;;4.47;;
67191;SDS011;54120;53.504;49.426;2023-12-04T13:06:11;3.88;;;3.58;;
67191;SDS011;54120;53.504;49.426;2023-12-04T13:08:37;6.95;;;4.32;;
67191;SDS011;54120;53.504;49.426;2023-12-04T13:11:03;4.65;;;4.22;;
67191;SDS011;54120;53.504;49.426;2023-12-04T13:13:30;4.60;;;4.20;;
67191;SDS011;54120;53.504;49.426;2023-12-04T13:15:58;4.47;;;4.07;;
67191;SDS011;54120;53.504;49.426;2023-12-04T13:18:24;4.95;;;4.45;;
67191;SDS011;54120;53.504;49.426;2023-12-04T13:20:50;5.15;;;4.63;;
67191;SDS011;54120;53.504;49.426;2023-12-04T13:23:16;5.35;;;4.85;;
67191;SDS011;54120;53.504;49.426;2023-12-04T13:25:43;7.00;;;5.32;;
67191;SDS011;54120;53.504;49.426;2023-12-04T13:28:09;7.53;;;5.32;;
67191;SDS011;54120;53.504;49.426;2023-12-04T13:30:35;8.30;;;6.15;;
67191;SDS011;54120;53.504;49.426;2023-12-04T13:33:05;6.32;;;5.47;;
67191;SDS011;54120;53.504;49.426;2023-12-04T13:35:31;5.00;;;4.28;;
67191;SDS011;54120;53.504;49.426;2023-12-04T13:37:57;6.32;;;4.97;;
67191;SDS011;54120;53.504;49.426;2023-12-04T13:40:25;10.38;;;6.13;;
67191;SDS011;54120;53.504;49.426;2023-12-04T13:42:54;5.40;;;4.70;;
67191;SDS011;54120;53.504;49.426;2023-12-04T13:45:38;5.43;;;4.90;;
67191;SDS011;54120;53.504;49.426;2023-12-04T13:48:05;6.03;;;5.40;;
67191;SDS011;54120;53.504;49.426;2023-12-04T13:50:31;5.43;;;4.93;;
67191;SDS011;54120;53.504;49.426;2023-12-04T13:52:57;7.82;;;4.78;;
67191;SDS011;54120;53.504;49.426;2023-12-04T13:55:24;6.18;;;4.85;;
67191;SDS011;54120;53.504;49.426;2023-12-04T13:58:22;5.93;;;5.03;;
67191;SDS011;54120;53.504;49.426;2023-12-04T14:01:06;6.00;;;5.38;;
67191;SDS011;54120;53.504;49.426;2023-12-04T14:03:43;11.70;;;5.07;;
67191;SDS011;54120;53.504;49.426;2023-12-04T14:06:10;6.10;;;5.03;;
67191;SDS011;54120;53.504;49.426;2023-12-04T14:08:41;6.68;;;5.53;;
67191;SDS011;54120;53.504;49.426;2023-12-04T14:11:07;7.00;;;6.15;;
67191;SDS011;54120;53.504;49.426;2023-12-04T14:13:35;6.72;;;5.93;;
67191;SDS011;54120;53.504;49.426;2023-12-04T14:16:06;6.97;;;5.97;;
67191;SDS011;54120;53.504;49.426;2023-12-04T14:18:33;6.28;;;5.60;;
67191;SDS011;54120;53.504;49.426;2023-12-04T14:21:00;7.18;;;6.20;;
67191;SDS011;54120;53.504;49.426;2023-12-04T14:23:27;6.75;;;6.05;;
67191;SDS011;54120;53.504;49.426;2023-12-04T14:25:53;7.22;;;6.28;;
67191;SDS011;54120;53.504;49.426;2023-12-04T14:28:20;7.32;;;6.45;;
67191;SDS011;54120;53.504;49.426;2023-12-04T14:30:46;8.23;;;6.78;;
67191;SDS011;54120;53.504;49.426;2023-12-04T14:33:13;7.50;;;6.53;;
67191;SDS011;54120;53.504;49.426;2023-12-04T14:35:39;7.20;;;5.90;;
67191;SDS011;54120;53.504;49.426;2023-12-04T14:38:07;7.22;;;6.25;;